Time;durP1;ratioP1;P1;durP2;ratioP2;P2;SDS_P1;SDS_P2;PMS_P1;PMS_P2;Temp;Humidity;BMP_temperature;BMP_pressure;BME280_temperature;BME280_humidity;BME280_pressure;Samples;Min_cycle;Max_cycle;Signal;HPM_P1;HPM_P2
2021/10/05 00:02:24;;;;;;;10.77;6.93;;;13.60;99.90;;;;;;5033233;28;20486;-57
2021/10/05 00:04:51;;;;;;;10.00;7.57;;;13.70;99.90;;;;;;5032775;28;20951;-57
2021/10/05 00:07:19;;;;;;;9.17;7.40;;;13.70;99.90;;;;;;5033148;28;20473;-58
2021/10/05 00:09:46;;;;;;;10.33;7.60;;;13.70;99.90;;;;;;5033270;28;20930;-57
2021/10/05 00:12:13;;;;;;;9.60;7.50;;;13.60;99.90;;;;;;5032988;28;20490;-57
2021/10/05 00:14:41;;;;;;;10.60;7.53;;;13.60;99.90;;;;;;5032592;28;20488;-57
2021/10/05 00:17:09;;;;;;;10.50;8.00;;;13.50;99.90;;;;;;5033158;28;20473;-58
2021/10/05 00:19:36;;;;;;;10.00;7.23;;;13.40;99.90;;;;;;5032862;28;20506;-57
2021/10/05 00:22:04;;;;;;;9.30;7.20;;;13.40;99.90;;;;;;5032843;28;20550;-57
2021/10/05 00:24:31;;;;;;;11.00;6.97;;;13.40;99.90;;;;;;5031556;28;20946;-57
2021/10/05 00:26:58;;;;;;;9.17;7.00;;;13.50;99.90;;;;;;5033027;28;20982;-57
2021/10/05 00:29:25;;;;;;;9.50;7.40;;;13.60;99.90;;;;;;5032748;28;20502;-57
2021/10/05 00:31:53;;;;;;;10.33;7.60;;;13.50;99.90;;;;;;5033019;28;20503;-57
2021/10/05 00:34:20;;;;;;;11.87;8.50;;;13.30;99.90;;;;;;5032013;28;20448;-57
2021/10/05 00:36:47;;;;;;;13.87;8.97;;;13.30;99.90;;;;;;5032768;28;21002;-58
2021/10/05 00:39:14;;;;;;;13.43;9.00;;;13.20;99.90;;;;;;5032388;28;20449;-58
2021/10/05 00:41:41;;;;;;;19.73;10.20;;;13.10;99.90;;;;;;5032776;28;20452;-58
2021/10/05 00:44:08;;;;;;;15.83;10.70;;;13.00;99.90;;;;;;5032234;28;20480;-57
2021/10/05 00:46:35;;;;;;;16.00;10.33;;;12.80;99.90;;;;;;5032750;28;20507;-57
2021/10/05 00:49:04;;;;;;;17.70;11.10;;;12.80;99.90;;;;;;5032634;28;20510;-57
2021/10/05 00:51:32;;;;;;;16.97;10.60;;;12.80;99.90;;;;;;5032300;28;21009;-57
2021/10/05 00:53:59;;;;;;;20.17;11.50;;;12.70;99.90;;;;;;5031206;28;20456;-57
2021/10/05 00:56:26;;;;;;;15.77;10.23;;;12.70;99.90;;;;;;5032728;28;20886;-57
2021/10/05 00:58:53;;;;;;;18.53;11.47;;;12.70;99.90;;;;;;5032314;28;20453;-57
2021/10/05 01:01:20;;;;;;;14.43;10.03;;;12.80;99.90;;;;;;5032291;28;20506;-57
2021/10/05 01:03:47;;;;;;;16.40;10.33;;;12.90;99.90;;;;;;5032144;28;20570;-57
2021/10/05 01:06:16;;;;;;;16.70;10.53;;;12.90;99.90;;;;;;5032377;28;20472;-58
2021/10/05 01:08:42;;;;;;;16.27;10.83;;;12.80;99.90;;;;;;5032480;28;20452;-57
2021/10/05 01:11:10;;;;;;;21.63;12.77;;;12.90;99.90;;;;;;5032360;28;20456;-57
2021/10/05 01:13:37;;;;;;;20.53;11.47;;;12.80;99.90;;;;;;5031445;28;20506;-57
2021/10/05 01:16:05;;;;;;;18.30;11.67;;;12.80;99.90;;;;;;5012775;28;20476;-57
2021/10/05 01:18:32;;;;;;;17.50;10.33;;;12.80;99.90;;;;;;5025785;28;20515;-57
2021/10/05 01:21:03;;;;;;;19.50;11.50;;;12.90;99.90;;;;;;5032080;28;20452;-57
2021/10/05 01:23:33;;;;;;;17.43;11.30;;;12.90;99.90;;;;;;5031321;28;20862;-57
2021/10/05 01:26:01;;;;;;;17.33;10.70;;;12.90;99.90;;;;;;5032391;28;20452;-58
2021/10/05 01:28:28;;;;;;;19.87;11.40;;;12.90;99.90;;;;;;5032470;28;20448;-57
2021/10/05 01:30:55;;;;;;;17.80;10.63;;;12.90;99.90;;;;;;5032049;28;20452;-57
2021/10/05 01:33:27;;;;;;;16.60;10.83;;;12.90;99.90;;;;;;5031618;28;20445;-57
2021/10/05 01:35:54;;;;;;;17.70;11.10;;;12.80;99.90;;;;;;5032143;28;20445;-57
2021/10/05 01:38:23;;;;;;;19.30;11.20;;;12.80;99.90;;;;;;5032514;28;20567;-57
2021/10/05 01:40:50;;;;;;;15.80;10.07;;;12.80;99.90;;;;;;5022143;28;20515;-57
2021/10/05 01:43:17;;;;;;;19.70;10.87;;;12.80;99.90;;;;;;5012265;28;20531;-57
2021/10/05 01:45:45;;;;;;;15.80;9.90;;;12.90;99.90;;;;;;5029209;28;20514;-57
2021/10/05 01:48:12;;;;;;;15.67;9.47;;;12.90;99.90;;;;;;5031323;28;20456;-57
2021/10/05 01:50:39;;;;;;;17.20;11.20;;;13.00;99.90;;;;;;5030642;28;21012;-57
2021/10/05 01:53:06;;;;;;;18.87;11.20;;;13.00;99.90;;;;;;5031592;28;21021;-57
2021/10/05 01:55:35;;;;;;;15.20;10.17;;;13.00;99.90;;;;;;5031714;28;20870;-57
2021/10/05 01:58:02;;;;;;;17.30;10.40;;;13.00;99.90;;;;;;5031425;28;20469;-57
2021/10/05 02:00:29;;;;;;;15.33;10.30;;;12.90;99.90;;;;;;5030710;28;20510;-57
2021/10/05 02:02:56;;;;;;;15.60;10.63;;;12.90;99.90;;;;;;5031501;28;20488;-57
2021/10/05 02:05:23;;;;;;;15.90;10.67;;;12.90;99.90;;;;;;5033095;28;20494;-57
2021/10/05 02:07:50;;;;;;;16.17;10.23;;;13.00;99.90;;;;;;5035265;28;20902;-57
2021/10/05 02:10:18;;;;;;;14.80;10.07;;;13.10;99.90;;;;;;5034760;28;20506;-57
2021/10/05 02:12:46;;;;;;;14.70;9.87;;;13.10;99.90;;;;;;5035529;28;20444;-57
2021/10/05 02:15:14;;;;;;;15.73;10.43;;;13.10;99.90;;;;;;5035125;28;20448;-57
2021/10/05 02:17:41;;;;;;;12.90;9.20;;;13.20;99.90;;;;;;5035340;28;20522;-58
2021/10/05 02:20:09;;;;;;;12.33;8.13;;;13.30;99.90;;;;;;5034392;28;20449;-58
2021/10/05 02:22:36;;;;;;;13.60;8.17;;;13.40;99.90;;;;;;5019419;28;20951;-57
2021/10/05 02:25:04;;;;;;;15.40;9.70;;;13.50;99.90;;;;;;5035315;28;20499;-57
2021/10/05 02:27:31;;;;;;;12.00;9.10;;;13.60;99.90;;;;;;5033648;28;20552;-57
2021/10/05 02:30:00;;;;;;;14.33;9.40;;;13.60;99.90;;;;;;5022136;28;20456;-57
2021/10/05 02:32:27;;;;;;;13.57;9.07;;;13.60;99.90;;;;;;5015429;28;20448;-57
2021/10/05 02:34:54;;;;;;;14.57;9.50;;;13.60;99.90;;;;;;5015301;28;20975;-57
2021/10/05 02:37:22;;;;;;;16.30;10.13;;;13.60;99.90;;;;;;5018744;28;20468;-57
2021/10/05 02:39:49;;;;;;;14.00;10.10;;;13.50;99.90;;;;;;5034717;28;20494;-57
2021/10/05 02:42:16;;;;;;;14.50;9.90;;;13.50;99.90;;;;;;5015076;28;20453;-57
2021/10/05 02:44:43;;;;;;;16.50;10.60;;;13.50;99.90;;;;;;5015323;28;20550;-57
2021/10/05 02:47:12;;;;;;;13.30;9.80;;;13.40;99.90;;;;;;5015109;28;20488;-57
2021/10/05 02:49:43;;;;;;;17.53;11.73;;;13.50;99.90;;;;;;5015331;28;20464;-58
2021/10/05 02:52:11;;;;;;;14.50;10.00;;;13.50;99.90;;;;;;5034143;28;20514;-58
2021/10/05 02:54:39;;;;;;;17.97;11.10;;;13.60;99.90;;;;;;5034804;28;20444;-57
2021/10/05 02:57:06;;;;;;;14.30;10.47;;;13.60;99.90;;;;;;5034702;28;20472;-57
2021/10/05 02:59:33;;;;;;;16.67;11.20;;;13.60;99.90;;;;;;5034868;28;20448;-57
2021/10/05 03:02:01;;;;;;;16.17;10.17;;;13.60;99.90;;;;;;5016259;28;20859;-57
2021/10/05 03:04:29;;;;;;;15.87;11.00;;;13.60;99.90;;;;;;5014844;28;20535;-57
2021/10/05 03:06:56;;;;;;;17.50;10.50;;;13.70;99.90;;;;;;5014685;28;20469;-57
2021/10/05 03:09:24;;;;;;;15.43;10.77;;;13.80;99.90;;;;;;5014754;28;20445;-58
2021/10/05 03:11:51;;;;;;;15.90;11.23;;;13.60;99.90;;;;;;5030587;28;20507;-58
2021/10/05 03:14:18;;;;;;;16.43;11.00;;;13.50;99.90;;;;;;5027646;28;20445;-57
2021/10/05 03:16:45;;;;;;;16.17;10.80;;;13.40;99.90;;;;;;5014086;28;20524;-57
2021/10/05 03:19:12;;;;;;;16.60;10.93;;;13.40;99.90;;;;;;5031041;28;20553;-58
2021/10/05 03:21:42;;;;;;;16.13;10.47;;;13.40;99.90;;;;;;5033372;28;20511;-57
2021/10/05 03:24:09;;;;;;;14.73;10.20;;;13.40;99.90;;;;;;5033961;28;20533;-57
2021/10/05 03:26:37;;;;;;;16.70;11.50;;;13.50;99.90;;;;;;5034154;28;20477;-57
2021/10/05 03:29:05;;;;;;;18.20;11.60;;;13.50;99.90;;;;;;5034171;28;20460;-57
2021/10/05 03:31:32;;;;;;;17.03;10.70;;;13.50;99.90;;;;;;5032539;28;20448;-57
2021/10/05 03:33:59;;;;;;;16.23;11.23;;;13.50;99.90;;;;;;5033797;28;20450;-57
2021/10/05 03:36:26;;;;;;;16.40;10.93;;;13.50;99.90;;;;;;5033907;28;20474;-57
2021/10/05 03:38:55;;;;;;;15.63;10.00;;;13.50;99.90;;;;;;5034003;28;21014;-57
2021/10/05 03:41:23;;;;;;;15.93;10.40;;;13.50;99.90;;;;;;5032921;28;20456;-57
2021/10/05 03:43:50;;;;;;;16.90;11.17;;;13.50;99.90;;;;;;5031150;28;20941;-57
2021/10/05 03:46:17;;;;;;;15.70;10.77;;;13.40;99.90;;;;;;5023018;28;20484;-57
2021/10/05 03:48:44;;;;;;;15.73;10.60;;;13.40;99.90;;;;;;5032140;28;20460;-57
2021/10/05 03:51:11;;;;;;;23.33;12.80;;;13.60;99.90;;;;;;5025125;28;20457;-57
2021/10/05 03:53:38;;;;;;;22.30;12.20;;;13.50;99.90;;;;;;5030155;28;20942;-57
2021/10/05 03:56:07;;;;;;;17.00;10.83;;;13.50;99.90;;;;;;5024685;28;20522;-57
2021/10/05 03:58:34;;;;;;;17.90;11.37;;;13.50;99.90;;;;;;5033834;28;21013;-57
2021/10/05 04:01:03;;;;;;;17.40;11.70;;;13.40;99.90;;;;;;5022236;28;20449;-57
2021/10/05 04:03:30;;;;;;;19.23;12.20;;;13.40;99.90;;;;;;5033433;28;20522;-58
2021/10/05 04:05:57;;;;;;;18.43;11.60;;;13.40;99.90;;;;;;5033396;28;20453;-57
2021/10/05 04:08:25;;;;;;;17.03;11.43;;;13.40;99.90;;;;;;5033627;28;20833;-57
2021/10/05 04:10:52;;;;;;;16.33;11.03;;;13.30;99.90;;;;;;5022875;28;20531;-57
2021/10/05 04:13:20;;;;;;;18.50;11.80;;;13.30;99.90;;;;;;5025343;28;20458;-58
2021/10/05 04:15:47;;;;;;;18.70;11.13;;;13.30;99.90;;;;;;5014323;28;20453;-57
2021/10/05 04:18:15;;;;;;;17.00;10.90;;;13.30;99.90;;;;;;5032684;28;21020;-57
2021/10/05 04:20:42;;;;;;;17.00;10.43;;;13.30;99.90;;;;;;5031962;28;20587;-57
2021/10/05 04:23:09;;;;;;;18.90;11.50;;;13.30;99.90;;;;;;5029675;28;20453;-57
2021/10/05 04:25:36;;;;;;;18.07;11.40;;;13.40;99.90;;;;;;5027606;28;20460;-57
2021/10/05 04:28:04;;;;;;;16.00;10.37;;;13.30;99.90;;;;;;5031782;28;20472;-57
2021/10/05 04:30:35;;;;;;;17.13;10.67;;;13.40;99.90;;;;;;5031814;28;20452;-57
2021/10/05 04:33:02;;;;;;;19.60;11.30;;;13.30;99.90;;;;;;5025721;28;20445;-57
2021/10/05 04:35:29;;;;;;;19.40;11.67;;;13.20;99.90;;;;;;5026106;28;20475;-57
2021/10/05 04:37:56;;;;;;;18.07;11.53;;;13.20;99.90;;;;;;5027002;28;20480;-57
2021/10/05 04:40:26;;;;;;;17.40;10.63;;;13.10;99.90;;;;;;5030953;28;20511;-57
2021/10/05 04:42:53;;;;;;;19.27;11.73;;;13.20;99.90;;;;;;5029868;28;20472;-57
2021/10/05 04:45:21;;;;;;;17.70;10.77;;;13.30;99.90;;;;;;5030735;28;20985;-57
2021/10/05 04:47:49;;;;;;;14.60;9.53;;;13.30;99.90;;;;;;5032347;28;20472;-57
2021/10/05 04:50:16;;;;;;;14.77;8.87;;;13.40;99.90;;;;;;5031775;28;20506;-57
2021/10/05 04:52:43;;;;;;;19.50;11.10;;;13.40;99.90;;;;;;5022360;28;20491;-57
2021/10/05 04:55:10;;;;;;;16.33;10.10;;;13.40;99.90;;;;;;5012791;28;20999;-57
2021/10/05 04:57:38;;;;;;;14.37;9.30;;;13.30;99.90;;;;;;5012610;28;20552;-57
2021/10/05 05:00:07;;;;;;;16.00;9.00;;;13.30;99.90;;;;;;5018059;28;20452;-57
2021/10/05 05:02:34;;;;;;;14.80;9.87;;;13.20;99.90;;;;;;5030909;28;20466;-57
2021/10/05 05:05:03;;;;;;;15.10;9.53;;;13.20;99.90;;;;;;5025715;28;21060;-57
2021/10/05 05:07:30;;;;;;;15.30;9.67;;;13.20;99.90;;;;;;5027345;28;20853;-57
2021/10/05 05:09:57;;;;;;;14.90;9.23;;;13.30;99.90;;;;;;5029336;28;20448;-57
2021/10/05 05:12:24;;;;;;;14.77;8.03;;;13.40;99.90;;;;;;5023464;28;20512;-57
2021/10/05 05:14:51;;;;;;;15.07;9.40;;;13.40;99.90;;;;;;5028062;28;20457;-57
2021/10/05 05:17:18;;;;;;;14.50;9.10;;;13.30;99.90;;;;;;5027048;28;20831;-57
2021/10/05 05:19:45;;;;;;;15.73;9.57;;;13.20;99.90;;;;;;5031168;28;20870;-57
2021/10/05 05:22:13;;;;;;;15.20;9.27;;;13.30;99.90;;;;;;5017042;28;21080;-57
2021/10/05 05:24:40;;;;;;;18.43;10.63;;;13.20;99.90;;;;;;5013714;28;20536;-57
2021/10/05 05:27:07;;;;;;;16.60;10.20;;;13.20;99.90;;;;;;5023169;28;20476;-57
2021/10/05 05:29:34;;;;;;;17.73;10.77;;;13.10;99.90;;;;;;5031159;28;20506;-57
2021/10/05 05:32:01;;;;;;;17.37;10.13;;;13.00;99.90;;;;;;5031180;28;20518;-57
2021/10/05 05:34:29;;;;;;;17.70;9.87;;;13.00;99.90;;;;;;5030848;28;20453;-58
2021/10/05 05:36:57;;;;;;;13.97;8.90;;;13.10;99.90;;;;;;5029519;28;20472;-58
2021/10/05 05:39:25;;;;;;;14.60;9.07;;;13.20;99.90;;;;;;5030909;28;20934;-58
2021/10/05 05:41:52;;;;;;;14.77;9.00;;;13.20;99.90;;;;;;5030068;28;20453;-57
2021/10/05 05:44:19;;;;;;;14.77;8.70;;;13.20;99.90;;;;;;5031368;28;20530;-57
2021/10/05 05:46:46;;;;;;;15.03;8.53;;;13.20;99.90;;;;;;5029589;28;20492;-57
2021/10/05 05:49:13;;;;;;;14.00;8.23;;;13.30;99.90;;;;;;5025810;28;20459;-57
2021/10/05 05:51:41;;;;;;;14.60;8.33;;;13.30;99.90;;;;;;5030633;28;20535;-57
2021/10/05 05:54:08;;;;;;;17.67;9.63;;;13.20;99.90;;;;;;5031839;28;20510;-57
2021/10/05 05:56:36;;;;;;;14.60;8.77;;;13.10;99.90;;;;;;5031315;28;20921;-57
2021/10/05 05:59:03;;;;;;;13.17;8.67;;;13.00;99.90;;;;;;5031263;28;20498;-57
2021/10/05 06:01:31;;;;;;;14.80;9.53;;;13.00;99.90;;;;;;5031078;28;21033;-57
2021/10/05 06:04:00;;;;;;;13.77;8.83;;;13.00;99.90;;;;;;5021957;28;20489;-57
2021/10/05 06:06:29;;;;;;;16.13;9.20;;;13.10;99.90;;;;;;5015301;28;20455;-57
2021/10/05 06:08:56;;;;;;;14.40;9.00;;;13.00;99.90;;;;;;5028971;28;20226;-57
2021/10/05 06:11:24;;;;;;;17.00;9.23;;;13.00;99.90;;;;;;5030865;28;20453;-57
2021/10/05 06:13:52;;;;;;;16.77;7.93;;;13.00;99.90;;;;;;5031027;28;20477;-57
2021/10/05 06:16:19;;;;;;;22.03;8.90;;;13.00;99.90;;;;;;5031041;28;20884;-57
2021/10/05 06:18:46;;;;;;;16.00;9.70;;;13.00;99.90;;;;;;5030706;28;20954;-57
2021/10/05 06:21:14;;;;;;;17.67;9.43;;;12.90;99.90;;;;;;5030887;28;20789;-57
2021/10/05 06:23:42;;;;;;;13.20;8.13;;;13.00;99.90;;;;;;5028539;28;20484;-57
2021/10/05 06:26:09;;;;;;;16.03;8.50;;;13.00;99.90;;;;;;5022384;28;20466;-57
2021/10/05 06:28:37;;;;;;;14.83;8.50;;;12.90;99.90;;;;;;5026894;28;20457;-57
2021/10/05 06:31:06;;;;;;;17.73;8.57;;;12.80;99.90;;;;;;5030051;28;20526;-57
2021/10/05 06:33:33;;;;;;;15.47;8.90;;;12.90;99.90;;;;;;5021258;28;20522;-57
2021/10/05 06:36:00;;;;;;;16.07;9.13;;;13.00;99.90;;;;;;5022555;28;20464;-57
2021/10/05 06:38:28;;;;;;;16.53;7.90;;;13.10;99.90;;;;;;5023572;28;20563;-58
2021/10/05 06:40:55;;;;;;;19.13;8.57;;;13.10;99.90;;;;;;5022120;28;21315;-58
2021/10/05 06:43:22;;;;;;;15.30;8.33;;;13.20;99.90;;;;;;5021887;28;20464;-57
2021/10/05 06:45:49;;;;;;;12.57;8.37;;;13.20;99.90;;;;;;5019938;28;20492;-57
2021/10/05 06:48:18;;;;;;;15.27;8.47;;;13.20;99.90;;;;;;5022266;28;20461;-57
2021/10/05 06:50:45;;;;;;;15.50;8.67;;;13.30;99.90;;;;;;5026283;28;20456;-57
2021/10/05 06:53:16;;;;;;;18.07;9.60;;;13.20;99.90;;;;;;5027285;28;20479;-57
2021/10/05 06:55:43;;;;;;;16.20;8.27;;;13.20;99.90;;;;;;5026042;28;20733;-57
2021/10/05 06:58:10;;;;;;;13.97;8.00;;;13.20;99.90;;;;;;5026585;28;21340;-57
2021/10/05 07:00:37;;;;;;;16.03;8.70;;;13.20;99.90;;;;;;5025210;28;21055;-58
2021/10/05 07:03:04;;;;;;;14.23;8.33;;;13.20;99.90;;;;;;5026539;28;20464;-57
2021/10/05 07:05:36;;;;;;;15.73;8.67;;;13.20;99.90;;;;;;5025879;28;20488;-57
2021/10/05 07:08:07;;;;;;;15.20;9.17;;;13.30;99.90;;;;;;5027282;28;20484;-57
2021/10/05 07:10:36;;;;;;;16.80;9.53;;;13.30;99.90;;;;;;5027887;28;20602;-57
2021/10/05 07:13:04;;;;;;;14.70;9.30;;;13.40;99.90;;;;;;5026147;28;21065;-58
2021/10/05 07:15:32;;;;;;;14.90;9.00;;;13.50;99.90;;;;;;5030137;28;20460;-58
2021/10/05 07:17:59;;;;;;;14.40;8.37;;;13.50;99.90;;;;;;5031998;28;20495;-57
2021/10/05 07:20:27;;;;;;;20.00;9.73;;;13.50;99.90;;;;;;5031275;28;20460;-58
2021/10/05 07:22:55;;;;;;;14.40;8.43;;;13.60;99.90;;;;;;5032353;28;20452;-58
2021/10/05 07:25:23;;;;;;;18.00;9.63;;;13.60;99.90;;;;;;5028458;28;20485;-58
2021/10/05 07:27:54;;;;;;;16.53;10.00;;;13.60;99.90;;;;;;5025130;28;20491;-57
2021/10/05 07:30:24;;;;;;;16.40;9.03;;;13.70;99.90;;;;;;5029786;28;20464;-58
2021/10/05 07:32:52;;;;;;;17.10;9.50;;;13.80;99.90;;;;;;5028456;28;20531;-58
2021/10/05 07:35:19;;;;;;;23.30;10.63;;;13.70;99.90;;;;;;5032324;28;20484;-57
2021/10/05 07:37:46;;;;;;;14.83;9.60;;;13.70;99.90;;;;;;5031862;28;20927;-57
2021/10/05 07:40:20;;;;;;;12.80;8.27;;;13.60;99.90;;;;;;5033014;28;20444;-57
2021/10/05 07:42:47;;;;;;;15.87;8.80;;;13.60;99.90;;;;;;5032210;28;20465;-58
2021/10/05 07:45:15;;;;;;;15.33;9.33;;;13.60;99.90;;;;;;5031656;28;20542;-57
2021/10/05 07:47:42;;;;;;;17.73;9.30;;;13.60;99.90;;;;;;5031316;28;20571;-57
2021/10/05 07:50:09;;;;;;;15.27;9.10;;;13.70;99.90;;;;;;5031973;28;20464;-58
2021/10/05 07:52:36;;;;;;;17.87;9.80;;;13.70;99.90;;;;;;5029274;28;20468;-58
2021/10/05 07:55:04;;;;;;;13.47;8.17;;;13.80;99.90;;;;;;5027006;28;21028;-57
2021/10/05 07:57:33;;;;;;;15.10;8.40;;;14.00;99.90;;;;;;5028284;28;20889;-58
2021/10/05 08:00:00;;;;;;;16.13;9.03;;;14.10;99.90;;;;;;5025267;28;20900;-58
2021/10/05 08:02:27;;;;;;;14.80;8.40;;;14.20;99.90;;;;;;5025040;28;20539;-57
2021/10/05 08:04:54;;;;;;;16.23;9.17;;;14.20;99.90;;;;;;5025315;28;20535;-58
2021/10/05 08:07:21;;;;;;;14.97;9.37;;;14.10;99.90;;;;;;5024077;28;20546;-57
2021/10/05 08:09:48;;;;;;;14.80;8.97;;;14.30;99.90;;;;;;5026834;28;20460;-57
2021/10/05 08:12:15;;;;;;;13.63;8.97;;;14.30;99.90;;;;;;5026156;28;20522;-58
2021/10/05 08:14:43;;;;;;;11.87;8.03;;;14.30;99.90;;;;;;5024858;28;20510;-57
2021/10/05 08:17:11;;;;;;;13.83;8.60;;;14.20;99.90;;;;;;5024162;28;20476;-58
2021/10/05 08:19:38;;;;;;;13.97;8.43;;;14.10;99.90;;;;;;5024647;28;20482;-58
2021/10/05 08:22:06;;;;;;;13.23;8.30;;;14.30;99.90;;;;;;5029543;28;20522;-57
2021/10/05 08:24:35;;;;;;;14.10;8.17;;;14.30;99.90;;;;;;5028527;28;20582;-58
2021/10/05 08:27:05;;;;;;;13.83;8.73;;;14.40;99.90;;;;;;5031029;28;20568;-58
2021/10/05 08:29:32;;;;;;;12.93;8.80;;;14.30;99.90;;;;;;5028320;28;20465;-57
2021/10/05 08:32:00;;;;;;;14.37;8.30;;;14.40;99.90;;;;;;5024603;28;20962;-57
2021/10/05 08:34:27;;;;;;;13.43;8.47;;;14.40;99.90;;;;;;5024950;28;20465;-57
2021/10/05 08:36:54;;;;;;;13.30;8.70;;;14.70;99.90;;;;;;5025025;28;20480;-58
2021/10/05 08:39:22;;;;;;;15.00;8.53;;;14.70;99.90;;;;;;5025032;28;20880;-57
2021/10/05 08:41:49;;;;;;;11.40;8.17;;;14.80;99.90;;;;;;5023035;28;20467;-58
2021/10/05 08:44:17;;;;;;;14.20;7.77;;;15.00;99.90;;;;;;5024521;28;20534;-58
2021/10/05 08:46:44;;;;;;;11.10;7.20;;;15.00;99.90;;;;;;5024501;28;21912;-58
2021/10/05 08:49:13;;;;;;;12.07;7.20;;;15.10;99.90;;;;;;5025030;28;20456;-58
2021/10/05 08:51:40;;;;;;;12.30;8.43;;;15.30;99.90;;;;;;5024411;28;21040;-58
2021/10/05 08:54:10;;;;;;;13.30;7.93;;;15.00;99.90;;;;;;5015422;28;20566;-58
2021/10/05 08:56:37;;;;;;;10.73;7.47;;;14.90;99.90;;;;;;5011917;28;21066;-57
2021/10/05 08:59:04;;;;;;;10.13;7.07;;;14.80;99.90;;;;;;5022484;28;21853;-58
2021/10/05 09:01:35;;;;;;;11.50;7.47;;;15.00;99.90;;;;;;5021706;28;21257;-58
2021/10/05 09:04:03;;;;;;;10.80;7.40;;;14.80;99.90;;;;;;5023511;28;20480;-58
2021/10/05 09:06:32;;;;;;;12.73;7.77;;;14.60;99.90;;;;;;5028139;28;20484;-58
2021/10/05 09:09:01;;;;;;;10.73;7.13;;;14.40;99.90;;;;;;5035213;28;20471;-58
2021/10/05 09:11:37;;;;;;;10.07;6.50;;;14.20;99.90;;;;;;5036293;28;20566;-58
2021/10/05 09:14:04;;;;;;;10.30;6.63;;;14.20;99.90;;;;;;5036496;28;21428;-58
2021/10/05 09:16:32;;;;;;;11.00;7.30;;;14.30;99.90;;;;;;5026220;28;20481;-58
2021/10/05 09:19:01;;;;;;;12.30;6.73;;;14.40;99.90;;;;;;5023203;28;20542;-59
2021/10/05 09:21:31;;;;;;;9.73;6.33;;;14.50;99.90;;;;;;5021071;28;20464;-57
2021/10/05 09:24:01;;;;;;;11.27;7.27;;;14.70;99.90;;;;;;5026510;28;20522;-58
2021/10/05 09:26:40;;;;;;;10.20;6.53;;;14.90;99.90;;;;;;5026835;28;20492;-58
2021/10/05 09:29:12;;;;;;;8.37;6.13;;;14.90;99.90;;;;;;5022972;28;20538;-58
2021/10/05 09:31:55;;;;;;;8.40;5.93;;;14.90;99.90;;;;;;5023583;28;21686;-58
2021/10/05 09:34:33;;;;;;;10.70;5.83;;;15.20;99.90;;;;;;5022889;28;20529;-57
2021/10/05 09:37:09;;;;;;;8.30;4.90;;;15.20;99.90;;;;;;5022844;28;20476;-58
2021/10/05 09:39:38;;;;;;;8.10;5.00;;;15.30;99.90;;;;;;5022922;28;20467;-58
2021/10/05 09:42:06;;;;;;;7.90;5.60;;;15.30;99.90;;;;;;5022864;28;20464;-58
2021/10/05 09:44:33;;;;;;;6.03;4.73;;;15.20;99.90;;;;;;5023896;28;20829;-57
2021/10/05 09:47:00;;;;;;;6.73;4.53;;;15.20;99.90;;;;;;5023616;28;20579;-58
2021/10/05 09:49:27;;;;;;;4.83;3.73;;;15.40;99.90;;;;;;5023087;28;21634;-57
2021/10/05 09:51:59;;;;;;;5.13;3.83;;;15.70;99.90;;;;;;5023114;28;20465;-58
2021/10/05 09:54:28;;;;;;;5.20;3.73;;;15.80;99.90;;;;;;5024118;28;21321;-58
2021/10/05 09:56:56;;;;;;;5.57;4.00;;;15.90;99.90;;;;;;5021674;28;20907;-58
2021/10/05 09:59:23;;;;;;;4.40;3.57;;;15.80;99.90;;;;;;5022667;28;20472;-58
2021/10/05 10:01:50;;;;;;;5.30;4.30;;;15.70;99.90;;;;;;5022657;28;20457;-58
2021/10/05 10:04:17;;;;;;;4.20;3.40;;;15.70;99.90;;;;;;5023052;28;20468;-58
2021/10/05 10:06:47;;;;;;;4.27;3.87;;;15.60;99.90;;;;;;5022095;28;20481;-58
2021/10/05 10:09:15;;;;;;;7.27;4.47;;;15.30;99.90;;;;;;5022798;28;20950;-58
2021/10/05 10:11:43;;;;;;;5.00;3.90;;;15.10;99.90;;;;;;5022920;28;20527;-58
2021/10/05 10:14:10;;;;;;;4.20;3.60;;;15.20;99.90;;;;;;5022794;28;20465;-58
2021/10/05 10:16:37;;;;;;;5.40;4.10;;;15.30;99.90;;;;;;5025731;28;20477;-58
2021/10/05 10:19:05;;;;;;;6.80;3.53;;;15.20;99.90;;;;;;5030492;28;20494;-58
2021/10/05 10:21:33;;;;;;;3.40;3.03;;;15.20;99.90;;;;;;5029192;28;20465;-58
2021/10/05 10:24:13;;;;;;;4.70;3.17;;;15.00;99.90;;;;;;5023817;28;20468;-58
2021/10/05 10:26:44;;;;;;;3.83;3.17;;;15.10;99.90;;;;;;5028474;28;20488;-59
2021/10/05 10:29:13;;;;;;;6.20;3.20;;;15.10;99.90;;;;;;5034709;28;20913;-59
2021/10/05 10:31:43;;;;;;;4.50;3.50;;;15.20;99.90;;;;;;5034055;28;20460;-59
2021/10/05 10:34:21;;;;;;;6.00;4.10;;;15.10;99.90;;;;;;5029164;28;20467;-59
2021/10/05 10:36:48;;;;;;;5.33;3.60;;;15.20;99.90;;;;;;5031121;28;20559;-59
2021/10/05 10:39:18;;;;;;;4.10;3.37;;;15.10;99.90;;;;;;5031395;28;20465;-59
2021/10/05 10:41:47;;;;;;;3.50;3.20;;;15.00;99.90;;;;;;5033910;28;20491;-59
2021/10/05 10:44:20;;;;;;;4.50;3.80;;;15.10;99.90;;;;;;5032356;28;20465;-59
2021/10/05 10:46:47;;;;;;;3.90;3.43;;;15.10;99.90;;;;;;5031498;28;20496;-59
2021/10/05 10:49:16;;;;;;;8.70;3.27;;;14.80;99.90;;;;;;5028004;28;20510;-58
2021/10/05 10:51:45;;;;;;;4.10;3.45;;;14.90;99.90;;;;;;5027814;28;20510;-58
2021/10/05 10:54:15;;;;;;;4.47;3.33;;;14.70;99.90;;;;;;5031605;28;20209;-58
2021/10/05 10:56:43;;;;;;;4.67;3.93;;;14.70;99.90;;;;;;5034445;28;21051;-58
2021/10/05 10:59:13;;;;;;;4.20;3.33;;;14.90;99.90;;;;;;5019257;28;20506;-58
2021/10/05 11:01:45;;;;;;;5.00;3.63;;;15.10;99.90;;;;;;5034201;28;20456;-58
2021/10/05 11:04:13;;;;;;;4.83;3.87;;;15.40;99.90;;;;;;5031214;28;20487;-58
2021/10/05 11:06:42;;;;;;;3.67;3.20;;;15.70;99.90;;;;;;5032515;28;20488;-59
2021/10/05 11:09:08;;;;;;;4.30;3.60;;;15.60;99.90;;;;;;5033367;28;20461;-58
2021/10/05 11:11:38;;;;;;;4.87;3.60;;;15.40;99.90;;;;;;5033941;28;20441;-58
2021/10/05 11:14:07;;;;;;;3.33;3.03;;;15.50;99.90;;;;;;5032998;28;20527;-59
2021/10/05 11:16:36;;;;;;;5.33;3.47;;;15.60;99.90;;;;;;5034111;28;20970;-58
2021/10/05 11:19:07;;;;;;;4.13;3.10;;;15.70;99.90;;;;;;5031451;28;20542;-58
2021/10/05 11:21:36;;;;;;;3.73;3.30;;;15.70;99.90;;;;;;5033179;28;20526;-59
2021/10/05 11:24:04;;;;;;;4.57;3.50;;;15.50;99.90;;;;;;5031810;28;20469;-58
2021/10/05 11:26:33;;;;;;;3.40;3.10;;;15.60;99.90;;;;;;5033839;28;20554;-58
2021/10/05 11:29:01;;;;;;;4.00;3.27;;;15.40;99.90;;;;;;5032147;28;20900;-60
2021/10/05 11:31:29;;;;;;;3.70;3.30;;;15.40;99.90;;;;;;5028537;28;20895;-58
2021/10/05 11:34:05;;;;;;;3.20;2.90;;;15.40;99.90;;;;;;5029536;28;20465;-58
2021/10/05 11:36:33;;;;;;;4.10;3.50;;;15.70;99.90;;;;;;5032356;28;21078;-58
2021/10/05 11:39:01;;;;;;;4.30;3.67;;;15.80;99.90;;;;;;5033320;28;20464;-58
2021/10/05 11:41:39;;;;;;;5.90;3.40;;;15.80;99.90;;;;;;5033814;28;20448;-58
2021/10/05 11:44:17;;;;;;;4.77;4.00;;;15.60;99.90;;;;;;5032475;28;20464;-58
2021/10/05 11:47:00;;;;;;;3.50;2.70;;;15.50;99.90;;;;;;5031226;28;20492;-58
2021/10/05 11:49:30;;;;;;;4.30;3.00;;;15.20;99.90;;;;;;5033389;28;20464;-58
2021/10/05 11:51:58;;;;;;;7.87;3.60;;;15.20;99.90;;;;;;5033158;28;20444;-58
2021/10/05 11:54:27;;;;;;;3.73;2.90;;;15.20;99.90;;;;;;5033188;28;20456;-58
2021/10/05 11:56:56;;;;;;;7.00;3.73;;;15.10;99.90;;;;;;5032623;28;21010;-58
2021/10/05 11:59:28;;;;;;;8.73;3.63;;;15.20;99.90;;;;;;5031985;28;20457;-58
2021/10/05 12:02:00;;;;;;;4.73;3.70;;;15.30;99.90;;;;;;5033412;28;20448;-58
2021/10/05 12:04:29;;;;;;;4.30;3.50;;;15.30;99.90;;;;;;5032844;28;20503;-58
2021/10/05 12:07:00;;;;;;;4.23;3.40;;;15.30;99.90;;;;;;5033278;28;20530;-58
2021/10/05 12:09:29;;;;;;;4.57;3.80;;;15.40;99.90;;;;;;5032879;28;20468;-58
2021/10/05 12:12:02;;;;;;;4.87;4.20;;;15.40;99.90;;;;;;5032435;28;20464;-58
2021/10/05 12:14:35;;;;;;;3.50;3.20;;;15.30;99.90;;;;;;5033018;28;20829;-58
2021/10/05 12:17:04;;;;;;;4.57;3.83;;;15.20;99.90;;;;;;5031963;28;20541;-58
2021/10/05 12:19:35;;;;;;;5.73;4.20;;;15.30;99.90;;;;;;5033006;28;20449;-58
2021/10/05 12:22:04;;;;;;;6.43;4.40;;;15.30;99.90;;;;;;5032271;28;20499;-58
2021/10/05 12:24:40;;;;;;;6.33;4.10;;;15.40;99.90;;;;;;5029398;28;20460;-58
2021/10/05 12:27:07;;;;;;;5.13;4.40;;;15.40;99.90;;;;;;5032613;28;21001;-58
2021/10/05 12:29:44;;;;;;;5.77;4.30;;;15.40;99.90;;;;;;5031529;28;20469;-58
2021/10/05 12:32:11;;;;;;;5.47;4.10;;;15.40;99.90;;;;;;5025053;28;20441;-58
2021/10/05 12:34:41;;;;;;;4.60;4.10;;;15.30;99.90;;;;;;5031495;28;20460;-58
2021/10/05 12:37:10;;;;;;;6.97;5.07;;;15.30;99.90;;;;;;5032831;28;20457;-58
2021/10/05 12:39:37;;;;;;;5.40;4.50;;;15.40;99.90;;;;;;5032222;28;21026;-58
2021/10/05 12:42:07;;;;;;;6.90;4.90;;;15.50;99.90;;;;;;5028313;28;20519;-57